sensor_id;sensor_type;location;lat;lon;timestamp;temperature;humidity
29575;DHT22;16507;51.046;6.406;2023-09-19T00:00:17;15.00;99.90
29575;DHT22;16507;51.046;6.406;2023-09-19T00:02:46;15.10;99.90
29575;DHT22;16507;51.046;6.406;2023-09-19T00:05:12;15.10;99.90
29575;DHT22;16507;51.046;6.406;2023-09-19T00:07:38;15.10;99.90
29575;DHT22;16507;51.046;6.406;2023-09-19T00:10:04;15.10;99.90
29575;DHT22;16507;51.046;6.406;2023-09-19T00:12:30;15.10;99.90
29575;DHT22;16507;51.046;6.406;2023-09-19T00:14:56;15.10;99.90
29575;DHT22;16507;51.046;6.406;2023-09-19T00:17:22;15.10;99.90
29575;DHT22;16507;51.046;6.406;2023-09-19T00:19:47;15.10;99.90
29575;DHT22;16507;51.046;6.406;2023-09-19T00:22:14;15.10;99.90
29575;DHT22;16507;51.046;6.406;2023-09-19T00:24:41;15.10;99.90
29575;DHT22;16507;51.046;6.406;2023-09-19T00:27:06;15.10;99.90
29575;DHT22;16507;51.046;6.406;2023-09-19T00:29:33;15.10;99.90
29575;DHT22;16507;51.046;6.406;2023-09-19T00:31:59;15.10;99.90
29575;DHT22;16507;51.046;6.406;2023-09-19T00:34:24;15.10;99.90
29575;DHT22;16507;51.046;6.406;2023-09-19T00:36:51;15.20;99.90
29575;DHT22;16507;51.046;6.406;2023-09-19T00:39:18;15.30;99.90
29575;DHT22;16507;51.046;6.406;2023-09-19T00:41:45;15.40;99.90
29575;DHT22;16507;51.046;6.406;2023-09-19T00:44:11;15.30;99.90
29575;DHT22;16507;51.046;6.406;2023-09-19T00:46:37;15.30;99.90
29575;DHT22;16507;51.046;6.406;2023-09-19T00:49:03;15.30;99.90
29575;DHT22;16507;51.046;6.406;2023-09-19T00:51:28;15.30;99.90
29575;DHT22;16507;51.046;6.406;2023-09-19T00:53:55;15.30;99.90
29575;DHT22;16507;51.046;6.406;2023-09-19T00:56:21;15.30;99.90
29575;DHT22;16507;51.046;6.406;2023-09-19T00:58:49;15.30;99.90
29575;DHT22;16507;51.046;6.406;2023-09-19T01:01:14;15.30;99.90
29575;DHT22;16507;51.046;6.406;2023-09-19T01:03:41;15.20;99.90
29575;DHT22;16507;51.046;6.406;2023-09-19T01:06:07;15.20;99.90
29575;DHT22;16507;51.046;6.406;2023-09-19T01:08:34;15.10;99.90
29575;DHT22;16507;51.046;6.406;2023-09-19T01:11:28;15.10;99.90
29575;DHT22;16507;51.046;6.406;2023-09-19T01:14:05;15.10;99.90
29575;DHT22;16507;51.046;6.406;2023-09-19T01:22:19;15.10;99.90
29575;DHT22;16507;51.046;6.406;2023-09-19T01:25:19;15.10;99.90
29575;DHT22;16507;51.046;6.406;2023-09-19T01:28:12;15.00;99.90
29575;DHT22;16507;51.046;6.406;2023-09-19T01:30:45;15.00;99.90
29575;DHT22;16507;51.046;6.406;2023-09-19T01:33:12;15.00;99.90
29575;DHT22;16507;51.046;6.406;2023-09-19T01:35:38;15.00;99.90
29575;DHT22;16507;51.046;6.406;2023-09-19T01:38:05;15.00;99.90
29575;DHT22;16507;51.046;6.406;2023-09-19T01:40:40;15.00;99.90
29575;DHT22;16507;51.046;6.406;2023-09-19T01:43:29;15.00;99.90
29575;DHT22;16507;51.046;6.406;2023-09-19T01:46:14;14.90;99.90
29575;DHT22;16507;51.046;6.406;2023-09-19T01:51:18;14.90;99.90
29575;DHT22;16507;51.046;6.406;2023-09-19T01:54:02;14.80;99.90
29575;DHT22;16507;51.046;6.406;2023-09-19T01:56:36;14.80;99.90
29575;DHT22;16507;51.046;6.406;2023-09-19T01:59:09;14.80;99.90
29575;DHT22;16507;51.046;6.406;2023-09-19T02:01:37;14.70;99.90
29575;DHT22;16507;51.046;6.406;2023-09-19T02:04:03;14.80;99.90
29575;DHT22;16507;51.046;6.406;2023-09-19T02:06:29;14.70;99.90
29575;DHT22;16507;51.046;6.406;2023-09-19T02:08:55;14.70;99.90
29575;DHT22;16507;51.046;6.406;2023-09-19T02:11:21;14.60;99.90
29575;DHT22;16507;51.046;6.406;2023-09-19T02:13:46;14.60;99.90
29575;DHT22;16507;51.046;6.406;2023-09-19T02:16:12;14.50;99.90
29575;DHT22;16507;51.046;6.406;2023-09-19T02:18:39;14.50;99.90
29575;DHT22;16507;51.046;6.406;2023-09-19T02:21:04;14.50;99.90
29575;DHT22;16507;51.046;6.406;2023-09-19T02:23:32;14.40;99.90
29575;DHT22;16507;51.046;6.406;2023-09-19T02:25:59;14.50;99.90
29575;DHT22;16507;51.046;6.406;2023-09-19T02:28:29;14.40;99.90
29575;DHT22;16507;51.046;6.406;2023-09-19T02:30:56;14.40;99.90
29575;DHT22;16507;51.046;6.406;2023-09-19T02:33:22;14.40;99.90
29575;DHT22;16507;51.046;6.406;2023-09-19T02:35:47;14.40;99.90
29575;DHT22;16507;51.046;6.406;2023-09-19T02:38:13;14.30;99.90
29575;DHT22;16507;51.046;6.406;2023-09-19T02:40:40;14.40;99.90
29575;DHT22;16507;51.046;6.406;2023-09-19T02:43:05;14.40;99.90
29575;DHT22;16507;51.046;6.406;2023-09-19T02:45:32;14.40;99.90
29575;DHT22;16507;51.046;6.406;2023-09-19T02:47:57;14.30;99.90
29575;DHT22;16507;51.046;6.406;2023-09-19T02:50:23;14.30;99.90
29575;DHT22;16507;51.046;6.406;2023-09-19T02:52:49;14.30;99.90
29575;DHT22;16507;51.046;6.406;2023-09-19T02:55:19;14.30;99.90
29575;DHT22;16507;51.046;6.406;2023-09-19T02:57:52;14.20;99.90
29575;DHT22;16507;51.046;6.406;2023-09-19T03:00:21;14.10;99.90
29575;DHT22;16507;51.046;6.406;2023-09-19T03:02:48;14.20;99.90
29575;DHT22;16507;51.046;6.406;2023-09-19T03:05:14;14.20;99.90
29575;DHT22;16507;51.046;6.406;2023-09-19T03:07:40;14.20;99.90
29575;DHT22;16507;51.046;6.406;2023-09-19T03:10:09;14.10;99.90
29575;DHT22;16507;51.046;6.406;2023-09-19T03:12:35;14.10;99.90
29575;DHT22;16507;51.046;6.406;2023-09-19T03:15:01;14.10;99.90
29575;DHT22;16507;51.046;6.406;2023-09-19T03:17:26;14.00;99.90
29575;DHT22;16507;51.046;6.406;2023-09-19T03:19:52;14.10;99.90
29575;DHT22;16507;51.046;6.406;2023-09-19T03:22:19;14.10;99.90
29575;DHT22;16507;51.046;6.406;2023-09-19T03:24:45;14.10;99.90
29575;DHT22;16507;51.046;6.406;2023-09-19T03:27:11;14.10;99.90
29575;DHT22;16507;51.046;6.406;2023-09-19T03:29:39;14.10;99.90
29575;DHT22;16507;51.046;6.406;2023-09-19T03:32:05;14.20;99.90
29575;DHT22;16507;51.046;6.406;2023-09-19T03:34:31;14.10;99.90
29575;DHT22;16507;51.046;6.406;2023-09-19T03:36:57;14.20;99.90
29575;DHT22;16507;51.046;6.406;2023-09-19T03:39:22;14.20;99.90
29575;DHT22;16507;51.046;6.406;2023-09-19T03:41:48;14.20;99.90
29575;DHT22;16507;51.046;6.406;2023-09-19T03:44:15;14.10;99.90
29575;DHT22;16507;51.046;6.406;2023-09-19T03:46:40;14.10;99.90
29575;DHT22;16507;51.046;6.406;2023-09-19T03:49:06;14.10;99.90
29575;DHT22;16507;51.046;6.406;2023-09-19T03:51:32;14.10;99.90
29575;DHT22;16507;51.046;6.406;2023-09-19T03:53:59;14.10;99.90
29575;DHT22;16507;51.046;6.406;2023-09-19T03:56:25;14.10;99.90
29575;DHT22;16507;51.046;6.406;2023-09-19T03:58:51;14.10;99.90
29575;DHT22;16507;51.046;6.406;2023-09-19T04:01:16;14.00;99.90
29575;DHT22;16507;51.046;6.406;2023-09-19T04:03:44;14.00;99.90
29575;DHT22;16507;51.046;6.406;2023-09-19T04:06:16;14.00;99.90
29575;DHT22;16507;51.046;6.406;2023-09-19T04:08:42;14.00;99.90
29575;DHT22;16507;51.046;6.406;2023-09-19T04:11:09;13.90;99.90
29575;DHT22;16507;51.046;6.406;2023-09-19T04:13:35;13.90;99.90
29575;DHT22;16507;51.046;6.406;2023-09-19T04:16:01;14.00;99.90
29575;DHT22;16507;51.046;6.406;2023-09-19T04:18:29;14.00;99.90
29575;DHT22;16507;51.046;6.406;2023-09-19T04:20:56;14.00;99.90
29575;DHT22;16507;51.046;6.406;2023-09-19T04:23:22;14.00;99.90
29575;DHT22;16507;51.046;6.406;2023-09-19T04:25:47;13.90;99.90
29575;DHT22;16507;51.046;6.406;2023-09-19T04:28:14;14.00;99.90
29575;DHT22;16507;51.046;6.406;2023-09-19T04:30:40;13.90;99.90
29575;DHT22;16507;51.046;6.406;2023-09-19T04:33:06;14.00;99.90
29575;DHT22;16507;51.046;6.406;2023-09-19T04:35:32;13.90;99.90
29575;DHT22;16507;51.046;6.406;2023-09-19T04:37:58;13.90;99.90
29575;DHT22;16507;51.046;6.406;2023-09-19T04:40:24;13.80;99.90
29575;DHT22;16507;51.046;6.406;2023-09-19T04:42:58;13.90;99.90
29575;DHT22;16507;51.046;6.406;2023-09-19T04:45:27;13.80;99.90
29575;DHT22;16507;51.046;6.406;2023-09-19T04:47:54;13.80;99.90
29575;DHT22;16507;51.046;6.406;2023-09-19T04:50:20;13.80;99.90
29575;DHT22;16507;51.046;6.406;2023-09-19T04:52:50;13.80;99.90
29575;DHT22;16507;51.046;6.406;2023-09-19T04:55:19;13.80;99.90
29575;DHT22;16507;51.046;6.406;2023-09-19T04:57:52;13.80;99.90
29575;DHT22;16507;51.046;6.406;2023-09-19T05:00:22;13.80;99.90
29575;DHT22;16507;51.046;6.406;2023-09-19T05:02:50;13.90;99.90
29575;DHT22;16507;51.046;6.406;2023-09-19T05:05:16;13.90;99.90
29575;DHT22;16507;51.046;6.406;2023-09-19T05:07:43;13.90;99.90
29575;DHT22;16507;51.046;6.406;2023-09-19T05:10:09;14.00;99.90
29575;DHT22;16507;51.046;6.406;2023-09-19T05:12:38;14.10;99.90
29575;DHT22;16507;51.046;6.406;2023-09-19T05:15:04;14.10;99.90
29575;DHT22;16507;51.046;6.406;2023-09-19T05:17:32;14.10;99.90
29575;DHT22;16507;51.046;6.406;2023-09-19T05:19:58;14.10;99.90
29575;DHT22;16507;51.046;6.406;2023-09-19T05:22:29;14.10;99.90
29575;DHT22;16507;51.046;6.406;2023-09-19T05:24:57;14.10;99.90
29575;DHT22;16507;51.046;6.406;2023-09-19T05:27:23;14.00;99.90
29575;DHT22;16507;51.046;6.406;2023-09-19T05:29:48;14.00;99.90
29575;DHT22;16507;51.046;6.406;2023-09-19T05:32:16;14.10;99.90
29575;DHT22;16507;51.046;6.406;2023-09-19T05:34:43;14.10;99.90
29575;DHT22;16507;51.046;6.406;2023-09-19T05:37:08;14.10;99.90
29575;DHT22;16507;51.046;6.406;2023-09-19T05:39:34;14.10;99.90
29575;DHT22;16507;51.046;6.406;2023-09-19T05:42:00;14.10;99.90
29575;DHT22;16507;51.046;6.406;2023-09-19T05:44:26;14.10;99.90
29575;DHT22;16507;51.046;6.406;2023-09-19T05:46:51;14.00;99.90
29575;DHT22;16507;51.046;6.406;2023-09-19T05:49:17;14.00;99.90
29575;DHT22;16507;51.046;6.406;2023-09-19T05:51:43;14.00;99.90
29575;DHT22;16507;51.046;6.406;2023-09-19T05:54:09;13.90;99.90
29575;DHT22;16507;51.046;6.406;2023-09-19T05:56:36;14.00;99.90
29575;DHT22;16507;51.046;6.406;2023-09-19T05:59:02;14.00;99.90
29575;DHT22;16507;51.046;6.406;2023-09-19T06:01:29;14.10;99.90
29575;DHT22;16507;51.046;6.406;2023-09-19T06:03:58;14.10;99.90
29575;DHT22;16507;51.046;6.406;2023-09-19T06:06:26;14.10;99.90
29575;DHT22;16507;51.046;6.406;2023-09-19T06:08:51;14.00;99.90
29575;DHT22;16507;51.046;6.406;2023-09-19T06:11:17;14.00;99.90
29575;DHT22;16507;51.046;6.406;2023-09-19T06:13:45;13.90;99.90
29575;DHT22;16507;51.046;6.406;2023-09-19T06:16:12;14.00;99.90
29575;DHT22;16507;51.046;6.406;2023-09-19T06:18:38;14.00;99.90
29575;DHT22;16507;51.046;6.406;2023-09-19T06:21:05;14.00;99.90
29575;DHT22;16507;51.046;6.406;2023-09-19T06:23:30;14.10;99.90
29575;DHT22;16507;51.046;6.406;2023-09-19T06:25:56;14.20;99.90
29575;DHT22;16507;51.046;6.406;2023-09-19T06:28:23;14.20;99.90
29575;DHT22;16507;51.046;6.406;2023-09-19T06:30:51;14.20;99.90
29575;DHT22;16507;51.046;6.406;2023-09-19T06:33:17;14.30;99.90
29575;DHT22;16507;51.046;6.406;2023-09-19T06:35:43;14.30;99.90
29575;DHT22;16507;51.046;6.406;2023-09-19T06:38:10;14.40;99.90
29575;DHT22;16507;51.046;6.406;2023-09-19T06:40:38;14.40;99.90
29575;DHT22;16507;51.046;6.406;2023-09-19T06:43:05;14.40;99.90
29575;DHT22;16507;51.046;6.406;2023-09-19T06:45:30;14.40;99.90
29575;DHT22;16507;51.046;6.406;2023-09-19T06:47:57;14.50;99.90
29575;DHT22;16507;51.046;6.406;2023-09-19T06:50:23;14.50;99.90
29575;DHT22;16507;51.046;6.406;2023-09-19T06:52:50;14.50;99.90
29575;DHT22;16507;51.046;6.406;2023-09-19T06:55:21;14.50;99.90
29575;DHT22;16507;51.046;6.406;2023-09-19T06:57:49;14.60;99.90
29575;DHT22;16507;51.046;6.406;2023-09-19T07:00:15;14.60;99.90
29575;DHT22;16507;51.046;6.406;2023-09-19T07:02:56;14.70;99.90
29575;DHT22;16507;51.046;6.406;2023-09-19T07:05:22;14.70;99.90
29575;DHT22;16507;51.046;6.406;2023-09-19T07:07:48;14.70;99.90
29575;DHT22;16507;51.046;6.406;2023-09-19T07:10:14;14.70;99.90
29575;DHT22;16507;51.046;6.406;2023-09-19T07:12:39;14.80;99.90
29575;DHT22;16507;51.046;6.406;2023-09-19T07:15:06;14.80;99.90
29575;DHT22;16507;51.046;6.406;2023-09-19T07:17:32;14.90;99.90
29575;DHT22;16507;51.046;6.406;2023-09-19T07:19:58;15.00;99.90
29575;DHT22;16507;51.046;6.406;2023-09-19T07:22:26;15.00;99.90
29575;DHT22;16507;51.046;6.406;2023-09-19T07:24:52;15.10;99.90
29575;DHT22;16507;51.046;6.406;2023-09-19T07:27:18;15.20;99.90
29575;DHT22;16507;51.046;6.406;2023-09-19T07:29:43;15.30;99.90
29575;DHT22;16507;51.046;6.406;2023-09-19T07:32:10;15.40;99.90
29575;DHT22;16507;51.046;6.406;2023-09-19T07:34:37;15.40;99.90
29575;DHT22;16507;51.046;6.406;2023-09-19T07:37:04;15.50;99.90
29575;DHT22;16507;51.046;6.406;2023-09-19T07:39:30;15.60;99.90
29575;DHT22;16507;51.046;6.406;2023-09-19T07:41:55;15.70;99.90
29575;DHT22;16507;51.046;6.406;2023-09-19T07:44:22;15.70;99.90
29575;DHT22;16507;51.046;6.406;2023-09-19T07:46:48;15.80;99.90
29575;DHT22;16507;51.046;6.406;2023-09-19T07:49:16;15.90;99.90
29575;DHT22;16507;51.046;6.406;2023-09-19T07:51:43;15.70;99.90
29575;DHT22;16507;51.046;6.406;2023-09-19T07:54:12;15.80;99.90
29575;DHT22;16507;51.046;6.406;2023-09-19T07:56:40;15.90;99.90
29575;DHT22;16507;51.046;6.406;2023-09-19T07:59:06;16.00;99.90
29575;DHT22;16507;51.046;6.406;2023-09-19T08:01:32;16.00;99.90
29575;DHT22;16507;51.046;6.406;2023-09-19T08:03:58;16.10;99.90
29575;DHT22;16507;51.046;6.406;2023-09-19T08:06:24;16.30;99.90
29575;DHT22;16507;51.046;6.406;2023-09-19T08:08:52;16.20;99.90
29575;DHT22;16507;51.046;6.406;2023-09-19T08:11:22;16.30;99.90
29575;DHT22;16507;51.046;6.406;2023-09-19T08:13:49;16.50;99.90
29575;DHT22;16507;51.046;6.406;2023-09-19T08:16:16;16.50;99.90
29575;DHT22;16507;51.046;6.406;2023-09-19T08:18:47;16.50;99.90
29575;DHT22;16507;51.046;6.406;2023-09-19T08:21:14;16.60;99.90
29575;DHT22;16507;51.046;6.406;2023-09-19T08:23:40;16.50;99.90
29575;DHT22;16507;51.046;6.406;2023-09-19T08:26:06;16.60;99.90
29575;DHT22;16507;51.046;6.406;2023-09-19T08:28:34;16.60;99.90
29575;DHT22;16507;51.046;6.406;2023-09-19T08:31:03;16.40;99.90
29575;DHT22;16507;51.046;6.406;2023-09-19T08:33:32;16.60;99.90
29575;DHT22;16507;51.046;6.406;2023-09-19T08:35:58;16.70;99.90
29575;DHT22;16507;51.046;6.406;2023-09-19T08:38:23;16.70;99.90
29575;DHT22;16507;51.046;6.406;2023-09-19T08:40:49;16.70;99.90
29575;DHT22;16507;51.046;6.406;2023-09-19T08:43:15;16.60;99.90
29575;DHT22;16507;51.046;6.406;2023-09-19T08:45:40;16.70;99.90
29575;DHT22;16507;51.046;6.406;2023-09-19T08:50:45;16.90;99.90
29575;DHT22;16507;51.046;6.406;2023-09-19T08:53:19;17.00;99.90
29575;DHT22;16507;51.046;6.406;2023-09-19T08:55:50;17.00;99.90
29575;DHT22;16507;51.046;6.406;2023-09-19T08:58:17;17.00;99.90
29575;DHT22;16507;51.046;6.406;2023-09-19T09:00:47;17.10;99.90
29575;DHT22;16507;51.046;6.406;2023-09-19T09:03:15;17.10;99.90
29575;DHT22;16507;51.046;6.406;2023-09-19T09:05:43;17.20;99.90
29575;DHT22;16507;51.046;6.406;2023-09-19T09:08:10;17.40;99.90
29575;DHT22;16507;51.046;6.406;2023-09-19T09:10:39;17.50;99.90
29575;DHT22;16507;51.046;6.406;2023-09-19T09:13:09;17.60;99.90
29575;DHT22;16507;51.046;6.406;2023-09-19T09:15:38;17.50;99.90
29575;DHT22;16507;51.046;6.406;2023-09-19T09:18:04;17.60;99.90
29575;DHT22;16507;51.046;6.406;2023-09-19T09:20:30;17.70;99.90
29575;DHT22;16507;51.046;6.406;2023-09-19T09:22:56;17.40;99.90
29575;DHT22;16507;51.046;6.406;2023-09-19T09:28:20;17.70;99.90
29575;DHT22;16507;51.046;6.406;2023-09-19T09:30:46;17.90;99.90
29575;DHT22;16507;51.046;6.406;2023-09-19T09:33:13;17.70;99.90
29575;DHT22;16507;51.046;6.406;2023-09-19T09:35:55;17.90;99.90
29575;DHT22;16507;51.046;6.406;2023-09-19T09:38:30;17.80;99.90
29575;DHT22;16507;51.046;6.406;2023-09-19T09:41:09;17.70;99.90
29575;DHT22;16507;51.046;6.406;2023-09-19T09:43:39;17.70;99.90
29575;DHT22;16507;51.046;6.406;2023-09-19T09:46:17;17.90;99.90
29575;DHT22;16507;51.046;6.406;2023-09-19T09:48:46;18.00;99.90
29575;DHT22;16507;51.046;6.406;2023-09-19T09:51:34;17.80;99.90
29575;DHT22;16507;51.046;6.406;2023-09-19T09:54:16;17.90;99.90
29575;DHT22;16507;51.046;6.406;2023-09-19T09:56:56;18.10;99.90
29575;DHT22;16507;51.046;6.406;2023-09-19T10:02:20;17.90;99.90
29575;DHT22;16507;51.046;6.406;2023-09-19T10:04:55;17.90;99.90
29575;DHT22;16507;51.046;6.406;2023-09-19T10:07:39;18.10;99.90
29575;DHT22;16507;51.046;6.406;2023-09-19T10:10:15;18.40;99.90
29575;DHT22;16507;51.046;6.406;2023-09-19T10:12:47;18.50;99.90
29575;DHT22;16507;51.046;6.406;2023-09-19T10:15:18;18.30;99.90
29575;DHT22;16507;51.046;6.406;2023-09-19T10:17:46;18.10;99.90
29575;DHT22;16507;51.046;6.406;2023-09-19T10:20:16;18.00;99.90
29575;DHT22;16507;51.046;6.406;2023-09-19T10:22:59;17.90;99.90
29575;DHT22;16507;51.046;6.406;2023-09-19T10:25:26;17.80;99.90
29575;DHT22;16507;51.046;6.406;2023-09-19T10:27:54;17.80;99.90
29575;DHT22;16507;51.046;6.406;2023-09-19T10:30:22;17.70;99.90
29575;DHT22;16507;51.046;6.406;2023-09-19T10:33:00;17.70;99.90
29575;DHT22;16507;51.046;6.406;2023-09-19T10:35:27;17.70;99.90
29575;DHT22;16507;51.046;6.406;2023-09-19T10:37:54;17.70;99.90
29575;DHT22;16507;51.046;6.406;2023-09-19T10:40:22;17.80;99.90
29575;DHT22;16507;51.046;6.406;2023-09-19T10:43:03;17.80;99.90
29575;DHT22;16507;51.046;6.406;2023-09-19T10:45:35;17.70;99.90
29575;DHT22;16507;51.046;6.406;2023-09-19T10:48:04;17.90;99.90
29575;DHT22;16507;51.046;6.406;2023-09-19T10:50:34;17.90;99.90
29575;DHT22;16507;51.046;6.406;2023-09-19T10:53:04;17.90;99.90
29575;DHT22;16507;51.046;6.406;2023-09-19T10:55:33;17.90;99.90
29575;DHT22;16507;51.046;6.406;2023-09-19T10:58:01;18.00;99.90
29575;DHT22;16507;51.046;6.406;2023-09-19T11:00:58;17.90;99.90
29575;DHT22;16507;51.046;6.406;2023-09-19T11:03:43;18.00;99.90
29575;DHT22;16507;51.046;6.406;2023-09-19T11:06:18;17.90;99.90
29575;DHT22;16507;51.046;6.406;2023-09-19T11:08:53;17.90;99.90
29575;DHT22;16507;51.046;6.406;2023-09-19T11:11:41;18.00;99.90
29575;DHT22;16507;51.046;6.406;2023-09-19T11:30:52;19.00;99.90
29575;DHT22;16507;51.046;6.406;2023-09-19T11:33:30;19.10;99.90
29575;DHT22;16507;51.046;6.406;2023-09-19T11:36:17;19.10;99.90
29575;DHT22;16507;51.046;6.406;2023-09-19T11:46:17;19.10;95.00
29575;DHT22;16507;51.046;6.406;2023-09-19T11:48:48;19.20;95.70
29575;DHT22;16507;51.046;6.406;2023-09-19T11:51:24;19.30;95.60
29575;DHT22;16507;51.046;6.406;2023-09-19T11:53:55;19.30;99.90
29575;DHT22;16507;51.046;6.406;2023-09-19T11:56:22;19.30;85.80
29575;DHT22;16507;51.046;6.406;2023-09-19T11:58:50;19.30;99.90
29575;DHT22;16507;51.046;6.406;2023-09-19T12:01:24;19.40;90.60
29575;DHT22;16507;51.046;6.406;2023-09-19T12:03:54;19.40;83.80
29575;DHT22;16507;51.046;6.406;2023-09-19T12:06:23;19.40;82.00
29575;DHT22;16507;51.046;6.406;2023-09-19T12:08:49;19.60;79.50
29575;DHT22;16507;51.046;6.406;2023-09-19T12:11:16;19.50;78.50
29575;DHT22;16507;51.046;6.406;2023-09-19T12:13:44;19.70;80.80
29575;DHT22;16507;51.046;6.406;2023-09-19T12:16:17;19.60;72.70
29575;DHT22;16507;51.046;6.406;2023-09-19T12:18:46;19.60;79.80
29575;DHT22;16507;51.046;6.406;2023-09-19T12:21:41;19.70;80.00
29575;DHT22;16507;51.046;6.406;2023-09-19T12:24:11;19.70;71.90
29575;DHT22;16507;51.046;6.406;2023-09-19T12:26:43;19.60;79.10
29575;DHT22;16507;51.046;6.406;2023-09-19T12:29:16;19.80;77.40
29575;DHT22;16507;51.046;6.406;2023-09-19T12:31:56;19.90;71.00
29575;DHT22;16507;51.046;6.406;2023-09-19T12:34:30;19.80;68.60
29575;DHT22;16507;51.046;6.406;2023-09-19T12:37:07;20.00;71.80
29575;DHT22;16507;51.046;6.406;2023-09-19T12:39:42;20.20;68.40
29575;DHT22;16507;51.046;6.406;2023-09-19T12:42:10;20.30;72.80
29575;DHT22;16507;51.046;6.406;2023-09-19T12:44:44;20.50;67.30
29575;DHT22;16507;51.046;6.406;2023-09-19T12:47:11;20.30;63.60
29575;DHT22;16507;51.046;6.406;2023-09-19T12:50:13;20.20;75.90
29575;DHT22;16507;51.046;6.406;2023-09-19T12:52:41;20.30;67.20
29575;DHT22;16507;51.046;6.406;2023-09-19T12:55:07;20.10;64.00
29575;DHT22;16507;51.046;6.406;2023-09-19T12:57:34;20.20;67.10
29575;DHT22;16507;51.046;6.406;2023-09-19T13:00:04;20.20;68.10
29575;DHT22;16507;51.046;6.406;2023-09-19T13:02:31;20.00;66.90
29575;DHT22;16507;51.046;6.406;2023-09-19T13:04:58;20.00;67.10
29575;DHT22;16507;51.046;6.406;2023-09-19T13:07:45;20.10;70.50
29575;DHT22;16507;51.046;6.406;2023-09-19T13:10:15;20.20;74.10
29575;DHT22;16507;51.046;6.406;2023-09-19T13:12:42;20.10;73.10
29575;DHT22;16507;51.046;6.406;2023-09-19T13:15:13;20.20;71.80
29575;DHT22;16507;51.046;6.406;2023-09-19T13:17:49;20.20;71.90
29575;DHT22;16507;51.046;6.406;2023-09-19T13:20:22;20.50;69.10
29575;DHT22;16507;51.046;6.406;2023-09-19T13:22:53;20.40;69.70
29575;DHT22;16507;51.046;6.406;2023-09-19T13:25:35;20.50;70.00
29575;DHT22;16507;51.046;6.406;2023-09-19T13:28:05;20.60;72.00
29575;DHT22;16507;51.046;6.406;2023-09-19T13:30:31;20.40;69.60
29575;DHT22;16507;51.046;6.406;2023-09-19T13:33:07;20.30;72.30
29575;DHT22;16507;51.046;6.406;2023-09-19T13:35:35;19.90;68.90
29575;DHT22;16507;51.046;6.406;2023-09-19T13:38:00;19.60;80.50
29575;DHT22;16507;51.046;6.406;2023-09-19T13:40:26;19.50;81.10
29575;DHT22;16507;51.046;6.406;2023-09-19T13:42:56;19.40;82.60
29575;DHT22;16507;51.046;6.406;2023-09-19T13:45:22;19.30;87.20
29575;DHT22;16507;51.046;6.406;2023-09-19T13:47:50;19.40;88.10
29575;DHT22;16507;51.046;6.406;2023-09-19T13:50:15;19.50;90.80
29575;DHT22;16507;51.046;6.406;2023-09-19T13:52:42;19.60;91.20
29575;DHT22;16507;51.046;6.406;2023-09-19T13:55:08;19.70;92.90
29575;DHT22;16507;51.046;6.406;2023-09-19T13:57:34;19.40;86.30
29575;DHT22;16507;51.046;6.406;2023-09-19T13:59:59;19.30;93.20
29575;DHT22;16507;51.046;6.406;2023-09-19T14:02:25;19.40;96.30
29575;DHT22;16507;51.046;6.406;2023-09-19T14:04:53;19.60;99.90
29575;DHT22;16507;51.046;6.406;2023-09-19T14:07:19;20.20;91.50
29575;DHT22;16507;51.046;6.406;2023-09-19T14:09:45;20.00;88.30
29575;DHT22;16507;51.046;6.406;2023-09-19T14:12:11;19.90;90.10
29575;DHT22;16507;51.046;6.406;2023-09-19T14:14:37;19.80;90.80
29575;DHT22;16507;51.046;6.406;2023-09-19T14:17:04;20.20;85.10
29575;DHT22;16507;51.046;6.406;2023-09-19T14:19:29;20.10;83.70
29575;DHT22;16507;51.046;6.406;2023-09-19T14:21:55;20.00;85.50
29575;DHT22;16507;51.046;6.406;2023-09-19T14:24:21;19.80;87.40
29575;DHT22;16507;51.046;6.406;2023-09-19T14:26:48;19.60;97.30
29575;DHT22;16507;51.046;6.406;2023-09-19T14:29:15;19.60;94.20
29575;DHT22;16507;51.046;6.406;2023-09-19T14:31:41;19.40;89.30
29575;DHT22;16507;51.046;6.406;2023-09-19T14:34:07;19.30;92.40
29575;DHT22;16507;51.046;6.406;2023-09-19T14:36:35;19.30;99.00
29575;DHT22;16507;51.046;6.406;2023-09-19T14:39:01;19.20;92.30
29575;DHT22;16507;51.046;6.406;2023-09-19T14:41:27;19.10;91.80
29575;DHT22;16507;51.046;6.406;2023-09-19T14:43:53;19.10;92.00
29575;DHT22;16507;51.046;6.406;2023-09-19T14:46:21;19.10;94.70
29575;DHT22;16507;51.046;6.406;2023-09-19T14:48:47;19.10;91.40
29575;DHT22;16507;51.046;6.406;2023-09-19T14:51:13;19.00;91.30
29575;DHT22;16507;51.046;6.406;2023-09-19T14:53:40;19.00;92.10
29575;DHT22;16507;51.046;6.406;2023-09-19T14:56:10;19.00;97.90
29575;DHT22;16507;51.046;6.406;2023-09-19T14:58:37;19.00;97.30
29575;DHT22;16507;51.046;6.406;2023-09-19T15:01:09;18.90;96.40
29575;DHT22;16507;51.046;6.406;2023-09-19T15:03:39;18.90;98.00
29575;DHT22;16507;51.046;6.406;2023-09-19T15:06:10;18.90;98.10
29575;DHT22;16507;51.046;6.406;2023-09-19T15:08:37;18.90;95.90
29575;DHT22;16507;51.046;6.406;2023-09-19T15:11:08;18.90;99.90
29575;DHT22;16507;51.046;6.406;2023-09-19T15:13:36;18.90;96.00
29575;DHT22;16507;51.046;6.406;2023-09-19T15:16:02;19.00;98.50
29575;DHT22;16507;51.046;6.406;2023-09-19T15:18:29;19.00;97.40
29575;DHT22;16507;51.046;6.406;2023-09-19T15:20:56;19.00;99.90
29575;DHT22;16507;51.046;6.406;2023-09-19T15:23:22;18.90;99.90
29575;DHT22;16507;51.046;6.406;2023-09-19T15:25:50;18.90;99.90
29575;DHT22;16507;51.046;6.406;2023-09-19T15:28:17;18.90;95.10
29575;DHT22;16507;51.046;6.406;2023-09-19T15:30:44;18.90;95.00
29575;DHT22;16507;51.046;6.406;2023-09-19T15:33:09;18.90;96.70
29575;DHT22;16507;51.046;6.406;2023-09-19T15:35:35;18.90;98.30
29575;DHT22;16507;51.046;6.406;2023-09-19T15:38:03;18.90;99.50
29575;DHT22;16507;51.046;6.406;2023-09-19T15:40:28;18.90;98.80
29575;DHT22;16507;51.046;6.406;2023-09-19T15:42:54;18.90;99.00
29575;DHT22;16507;51.046;6.406;2023-09-19T15:45:22;18.80;96.70
29575;DHT22;16507;51.046;6.406;2023-09-19T15:47:48;18.90;98.90
29575;DHT22;16507;51.046;6.406;2023-09-19T15:50:14;18.90;99.90
29575;DHT22;16507;51.046;6.406;2023-09-19T15:52:41;19.00;98.20
29575;DHT22;16507;51.046;6.406;2023-09-19T15:55:07;19.00;99.90
29575;DHT22;16507;51.046;6.406;2023-09-19T15:57:33;19.40;95.20
29575;DHT22;16507;51.046;6.406;2023-09-19T15:59:59;19.30;94.10
29575;DHT22;16507;51.046;6.406;2023-09-19T16:02:25;19.20;94.50
29575;DHT22;16507;51.046;6.406;2023-09-19T16:04:54;19.10;94.90
29575;DHT22;16507;51.046;6.406;2023-09-19T16:07:19;19.10;95.70
29575;DHT22;16507;51.046;6.406;2023-09-19T16:09:45;19.20;95.90
29575;DHT22;16507;51.046;6.406;2023-09-19T16:12:10;19.20;96.00
29575;DHT22;16507;51.046;6.406;2023-09-19T16:14:37;19.20;96.70
29575;DHT22;16507;51.046;6.406;2023-09-19T16:17:03;19.10;93.90
29575;DHT22;16507;51.046;6.406;2023-09-19T16:19:29;19.10;97.30